Time;durP1;ratioP1;P1;durP2;ratioP2;P2;SDS_P1;SDS_P2;PMS_P1;PMS_P2;Temp;Humidity;BMP_temperature;BMP_pressure;BME280_temperature;BME280_humidity;BME280_pressure;Samples;Min_cycle;Max_cycle;Signal;HPM_P1;HPM_P2
2023/05/29 00:04:05;;;;;;;10.88;10.57;;;16.00;99.90;;;;;;5042173;28;20243;-86
2023/05/29 00:06:55;;;;;;;10.68;10.38;;;15.90;99.90;;;;;;5042505;28;20223;-87
2023/05/29 00:16:26;;;;;;;10.85;10.55;;;15.70;99.90;;;;;;5038698;28;20219;-87
2023/05/29 00:22:17;;;;;;;10.70;10.40;;;15.60;99.90;;;;;;4981990;28;20225;-88
2023/05/29 00:28:43;;;;;;;11.10;10.80;;;15.40;99.90;;;;;;5039437;28;20250;-88
2023/05/29 00:31:39;;;;;;;11.10;10.80;;;15.30;99.90;;;;;;5041608;28;20239;-87
2023/05/29 00:34:19;;;;;;;10.93;10.63;;;15.20;99.90;;;;;;5036020;28;20216;-87
2023/05/29 00:37:08;;;;;;;10.85;10.55;;;15.00;99.90;;;;;;5042197;28;20223;-87
2023/05/29 00:39:59;;;;;;;11.05;10.75;;;14.90;99.90;;;;;;5042083;28;20232;-88
2023/05/29 00:43:24;;;;;;;10.85;10.55;;;14.80;99.90;;;;;;5042501;28;20231;-87
2023/05/29 00:46:43;;;;;;;10.75;10.45;;;14.80;99.90;;;;;;5041566;28;20223;-87
2023/05/29 00:52:40;;;;;;;10.82;10.52;;;14.60;99.90;;;;;;5044768;28;20267;-87
2023/05/29 00:58:30;;;;;;;10.88;10.57;;;14.20;99.90;;;;;;5041060;28;20227;-88
2023/05/29 01:10:57;;;;;;;;;;;;;;;;;;;;;
2023/05/29 01:14:05;;;;;;;10.88;10.57;;;14.10;99.90;;;;;;5041342;28;20224;-88
2023/05/29 01:20:51;;;;;;;;;;;;;;;;;;;;;
2023/05/29 01:24:24;;;;;;;10.90;10.60;;;14.00;99.90;;;;;;5059573;28;20230;-85
2023/05/29 01:27:37;;;;;;;10.80;10.50;;;14.00;99.90;;;;;;4979430;28;20230;-85
2023/05/29 01:33:18;;;;;;;10.70;10.40;;;13.80;99.90;;;;;;5039952;28;20239;-87
2023/05/29 01:43:16;;;;;;;10.60;10.30;;;13.70;99.90;;;;;;5041348;28;21069;-88
2023/05/29 01:54:41;;;;;;;10.67;10.37;;;13.60;99.90;;;;;;5039943;28;20238;-87
2023/05/29 01:57:33;;;;;;;10.67;10.37;;;13.60;99.90;;;;;;5040259;28;20263;-87
2023/05/29 02:04:03;;;;;;;10.90;10.60;;;13.60;99.90;;;;;;5023250;28;20215;-88
2023/05/29 02:06:43;;;;;;;10.37;10.07;;;13.60;99.90;;;;;;5040363;28;20231;-88
2023/05/29 02:09:34;;;;;;;10.80;10.50;;;13.60;99.90;;;;;;5039592;28;20227;-87
2023/05/29 02:12:29;;;;;;;10.63;10.33;;;13.60;99.90;;;;;;5043330;28;20247;-87
2023/05/29 02:15:39;;;;;;;10.48;10.18;;;13.60;99.90;;;;;;5043740;28;20219;-87
2023/05/29 02:18:44;;;;;;;10.80;10.50;;;13.70;99.90;;;;;;5043595;28;20330;-88
2023/05/29 02:21:32;;;;;;;10.77;10.47;;;13.70;99.90;;;;;;5043467;28;20254;-88
2023/05/29 02:24:32;;;;;;;10.83;10.53;;;13.70;99.90;;;;;;5055115;28;20263;-84
2023/05/29 02:27:40;;;;;;;10.50;10.20;;;13.70;99.90;;;;;;5045328;28;20262;-87
2023/05/29 02:33:37;;;;;;;10.60;10.30;;;13.70;99.90;;;;;;5041221;28;20234;-87
2023/05/29 02:36:54;;;;;;;10.80;10.50;;;13.70;99.90;;;;;;5043361;28;20262;-87
2023/05/29 02:39:51;;;;;;;10.90;10.60;;;13.60;99.90;;;;;;5043119;28;20235;-88
2023/05/29 02:45:18;;;;;;;11.10;10.80;;;13.50;99.90;;;;;;5042956;28;20231;-87
2023/05/29 02:51:16;;;;;;;11.57;11.17;;;13.40;99.90;;;;;;5040311;28;20247;-87
2023/05/29 02:54:16;;;;;;;11.27;10.93;;;13.40;99.90;;;;;;5043504;28;20282;-87
2023/05/29 02:57:15;;;;;;;11.63;11.23;;;13.30;99.90;;;;;;5042662;28;20291;-87
2023/05/29 03:00:08;;;;;;;11.50;11.10;;;13.30;99.90;;;;;;5042955;28;20232;-88
2023/05/29 03:09:21;;;;;;;11.70;11.30;;;13.10;99.90;;;;;;5042775;28;20230;-87
2023/05/29 03:12:11;;;;;;;11.70;11.30;;;13.00;99.90;;;;;;5042204;28;20259;-87
2023/05/29 03:15:15;;;;;;;11.87;11.47;;;13.00;99.90;;;;;;5042627;28;20235;-88
2023/05/29 03:17:55;;;;;;;11.80;11.40;;;12.90;99.90;;;;;;5042391;28;20266;-88
2023/05/29 03:20:42;;;;;;;11.50;11.10;;;12.80;99.90;;;;;;5042146;28;20235;-88
2023/05/29 03:26:21;;;;;;;11.50;11.10;;;12.70;99.90;;;;;;5041467;28;20220;-87
2023/05/29 03:29:15;;;;;;;11.47;11.07;;;12.70;99.90;;;;;;5042564;28;20270;-88
2023/05/29 03:31:53;;;;;;;11.50;11.10;;;12.60;99.90;;;;;;5044038;28;20242;-87
2023/05/29 03:34:56;;;;;;;11.60;11.20;;;12.50;99.90;;;;;;5058643;28;20221;-85
2023/05/29 03:37:58;;;;;;;11.50;11.10;;;12.50;99.90;;;;;;5061052;28;20212;-84
2023/05/29 03:46:53;;;;;;;10.77;10.47;;;12.40;99.90;;;;;;5058401;28;20212;-83
2023/05/29 03:52:51;;;;;;;10.90;10.60;;;12.20;99.90;;;;;;5057168;28;20231;-85
2023/05/29 03:58:40;;;;;;;;;;;;;;;;;;;;;
2023/05/29 04:01:27;;;;;;;11.10;10.80;;;12.30;99.90;;;;;;5041502;28;20227;-88
2023/05/29 04:04:30;;;;;;;11.03;10.73;;;12.30;99.90;;;;;;5041804;28;20231;-88
2023/05/29 04:07:10;;;;;;;11.17;10.87;;;12.20;99.90;;;;;;5041700;28;20231;-88
2023/05/29 04:12:56;;;;;;;11.23;10.90;;;12.30;99.90;;;;;;5041628;28;20306;-88
2023/05/29 04:15:42;;;;;;;11.33;10.93;;;12.30;99.90;;;;;;5042257;28;20227;-88
2023/05/29 04:18:21;;;;;;;11.07;10.77;;;12.30;99.90;;;;;;5042146;28;20243;-85
2023/05/29 04:21:25;;;;;;;;;;;;;;;;;;;;;
2023/05/29 04:24:41;;;;;;;;;;;;;;;;;;;;;
2023/05/29 04:27:36;;;;;;;11.13;10.83;;;12.20;99.90;;;;;;5045964;28;20319;-87
2023/05/29 04:30:22;;;;;;;11.10;10.80;;;12.20;99.90;;;;;;5041614;28;20255;-88
2023/05/29 04:33:18;;;;;;;10.87;10.57;;;12.20;99.90;;;;;;5040665;28;20238;-88
2023/05/29 04:36:33;;;;;;;10.83;10.53;;;12.30;99.90;;;;;;5041513;28;20255;-88
2023/05/29 04:39:44;;;;;;;10.80;10.50;;;12.30;99.90;;;;;;5040852;28;20270;-87
2023/05/29 04:42:55;;;;;;;10.80;10.50;;;12.40;99.90;;;;;;5041478;28;20235;-89
2023/05/29 04:45:55;;;;;;;10.73;10.43;;;12.50;99.90;;;;;;5040997;28;20238;-88
2023/05/29 04:48:32;;;;;;;11.00;10.70;;;12.60;99.90;;;;;;5041320;28;20215;-88
2023/05/29 04:51:22;;;;;;;10.80;10.50;;;12.70;99.90;;;;;;5041052;28;20239;-88
2023/05/29 05:00:21;;;;;;;10.73;10.43;;;13.00;99.90;;;;;;5082195;22;20329;-84
2023/05/29 05:02:50;;;;;;;10.73;10.43;;;13.20;99.90;;;;;;5064693;28;20325;-84
2023/05/29 05:05:20;;;;;;;10.90;10.60;;;13.30;99.90;;;;;;5064404;28;20325;-85
2023/05/29 05:07:50;;;;;;;10.93;10.63;;;13.50;99.90;;;;;;5064407;28;20325;-84
2023/05/29 05:10:20;;;;;;;10.80;10.50;;;13.60;99.90;;;;;;5065134;28;20214;-84
2023/05/29 05:13:12;;;;;;;11.00;10.70;;;13.70;99.90;;;;;;5065215;28;20230;-84
2023/05/29 05:15:45;;;;;;;10.80;10.50;;;13.90;99.90;;;;;;5065471;28;20231;-84
2023/05/29 05:18:14;;;;;;;10.75;10.45;;;14.10;99.90;;;;;;5065384;28;20219;-84
2023/05/29 05:20:43;;;;;;;10.93;10.63;;;14.20;99.90;;;;;;5066810;28;20230;-84
2023/05/29 05:23:12;;;;;;;10.75;10.45;;;14.30;99.90;;;;;;5065430;28;20250;-84
2023/05/29 05:25:43;;;;;;;10.60;10.30;;;14.40;99.90;;;;;;5066003;28;20260;-84
2023/05/29 05:28:38;;;;;;;10.88;10.57;;;14.50;99.90;;;;;;5065598;28;20250;-83
2023/05/29 05:31:08;;;;;;;10.82;10.52;;;14.50;99.90;;;;;;5067589;28;20223;-84
2023/05/29 05:33:37;;;;;;;10.82;10.52;;;14.60;99.90;;;;;;5068819;28;20234;-84
2023/05/29 05:36:06;;;;;;;10.63;10.32;;;14.60;99.90;;;;;;5069020;28;20235;-84
2023/05/29 05:38:35;;;;;;;10.68;10.38;;;14.70;99.90;;;;;;5069763;28;20231;-83
2023/05/29 05:41:05;;;;;;;10.48;10.18;;;14.80;99.90;;;;;;5073228;28;20233;-83
2023/05/29 05:43:46;;;;;;;10.48;10.18;;;14.80;99.90;;;;;;5075491;28;20230;-83
2023/05/29 05:46:15;;;;;;;10.35;10.05;;;14.90;99.90;;;;;;5080114;28;20231;-83
2023/05/29 05:48:43;;;;;;;10.43;10.13;;;15.00;99.90;;;;;;5082531;28;20202;-82
2023/05/29 05:51:12;;;;;;;10.20;9.90;;;15.10;99.90;;;;;;5082468;28;20226;-84
2023/05/29 05:53:41;;;;;;;10.50;10.20;;;15.20;99.90;;;;;;5081734;28;20227;-84
2023/05/29 05:56:10;;;;;;;10.43;10.13;;;15.30;99.90;;;;;;5080185;28;20231;-84
2023/05/29 05:58:53;;;;;;;10.30;10.00;;;15.40;99.90;;;;;;5080006;28;20258;-84
2023/05/29 06:01:20;;;;;;;10.23;9.93;;;15.60;99.90;;;;;;5081186;28;20239;-84
2023/05/29 06:03:48;;;;;;;10.20;9.90;;;15.70;99.90;;;;;;5082086;28;20254;-83
2023/05/29 06:06:17;;;;;;;10.20;9.90;;;15.80;99.90;;;;;;5081453;28;20219;-84
2023/05/29 06:08:46;;;;;;;10.20;9.90;;;16.00;99.90;;;;;;5079196;28;20237;-84
2023/05/29 06:11:17;;;;;;;10.23;9.93;;;16.10;99.90;;;;;;5067748;28;20238;-84
2023/05/29 06:13:57;;;;;;;10.20;9.90;;;16.20;99.90;;;;;;5067557;28;20231;-84
2023/05/29 06:16:25;;;;;;;10.30;10.00;;;16.20;99.90;;;;;;5066980;28;20231;-84
2023/05/29 06:18:55;;;;;;;10.15;9.85;;;16.30;99.90;;;;;;5068695;28;20231;-84
2023/05/29 06:21:24;;;;;;;10.20;9.90;;;16.40;99.90;;;;;;5068244;28;20238;-83
2023/05/29 06:23:54;;;;;;;10.20;9.90;;;16.50;99.90;;;;;;5067778;28;20251;-84
2023/05/29 06:26:24;;;;;;;9.98;9.68;;;16.60;99.90;;;;;;5070613;28;20271;-83
2023/05/29 06:29:02;;;;;;;10.50;10.20;;;16.70;99.90;;;;;;5067751;28;20238;-83
2023/05/29 06:31:31;;;;;;;10.57;10.27;;;16.80;99.90;;;;;;5066440;28;20239;-83
2023/05/29 06:34:01;;;;;;;10.10;9.80;;;17.00;99.90;;;;;;5068507;28;20227;-83
2023/05/29 06:36:29;;;;;;;10.43;10.13;;;17.20;99.90;;;;;;5075189;28;20253;-83
2023/05/29 06:38:59;;;;;;;9.93;9.63;;;17.30;99.90;;;;;;5073854;28;20247;-83
2023/05/29 06:41:29;;;;;;;10.27;9.98;;;17.40;99.90;;;;;;5068723;28;20219;-83
2023/05/29 06:44:10;;;;;;;10.55;10.25;;;17.50;99.90;;;;;;5068426;28;20293;-84
2023/05/29 06:46:38;;;;;;;9.93;9.63;;;17.60;99.90;;;;;;5067562;28;20250;-83
2023/05/29 06:49:05;;;;;;;10.23;9.93;;;17.70;99.90;;;;;;5067140;28;20230;-84
2023/05/29 06:51:35;;;;;;;10.10;9.80;;;17.80;99.90;;;;;;5066815;28;20322;-84
2023/05/29 06:54:06;;;;;;;10.00;9.70;;;18.00;99.90;;;;;;5066955;28;20314;-83
2023/05/29 06:56:34;;;;;;;9.90;9.60;;;18.10;99.90;;;;;;5065650;28;20227;-84
2023/05/29 07:01:51;;;;;;;9.90;9.60;;;18.30;99.90;;;;;;5065763;28;20258;-85
2023/05/29 07:04:20;;;;;;;10.18;9.88;;;18.40;99.90;;;;;;5067341;28;20242;-84
2023/05/29 07:06:50;;;;;;;9.88;9.57;;;18.60;99.90;;;;;;5066748;28;20297;-83
2023/05/29 07:09:18;;;;;;;10.05;9.75;;;18.70;99.90;;;;;;5066137;28;20219;-84
2023/05/29 07:11:48;;;;;;;9.90;9.60;;;18.70;99.90;;;;;;5065767;28;20266;-84
2023/05/29 07:14:20;;;;;;;9.80;9.50;;;18.90;99.90;;;;;;5065470;28;20262;-83
2023/05/29 07:16:48;;;;;;;9.93;9.63;;;19.10;99.90;;;;;;5065370;28;20235;-84
2023/05/29 07:19:17;;;;;;;9.80;9.50;;;19.20;99.90;;;;;;5065649;28;20289;-84
2023/05/29 07:21:46;;;;;;;10.18;9.88;;;19.30;99.90;;;;;;5066187;28;20222;-84
2023/05/29 07:24:16;;;;;;;9.90;9.60;;;19.30;99.90;;;;;;5065388;28;20234;-84
2023/05/29 07:26:45;;;;;;;9.90;9.60;;;19.40;99.90;;;;;;5068537;28;20236;-84
2023/05/29 07:29:14;;;;;;;9.93;9.63;;;19.50;99.90;;;;;;5069418;28;20239;-84
2023/05/29 07:31:47;;;;;;;9.90;9.60;;;19.60;99.90;;;;;;5067073;28;20231;-84
2023/05/29 07:34:14;;;;;;;9.82;9.52;;;19.60;99.90;;;;;;5072549;28;20235;-84
2023/05/29 07:37:00;;;;;;;9.90;9.60;;;19.80;99.90;;;;;;5066737;28;20238;-84
2023/05/29 07:39:29;;;;;;;9.82;9.52;;;20.00;99.90;;;;;;5066547;28;20230;-85
2023/05/29 07:41:59;;;;;;;10.05;9.75;;;20.10;99.90;;;;;;5065397;28;20230;-85
2023/05/29 07:44:28;;;;;;;9.93;9.63;;;20.30;99.90;;;;;;5065646;28;20342;-85
2023/05/29 07:47:01;;;;;;;10.10;9.80;;;20.50;99.90;;;;;;5066009;28;20238;-84
2023/05/29 07:49:30;;;;;;;10.10;9.80;;;20.50;99.90;;;;;;5065826;28;20321;-84
2023/05/29 07:51:57;;;;;;;9.98;9.68;;;20.60;99.90;;;;;;5065296;28;20227;-85
2023/05/29 07:54:26;;;;;;;10.02;9.73;;;20.70;99.90;;;;;;5065461;28;20281;-84
2023/05/29 07:56:57;;;;;;;10.20;9.90;;;20.80;99.90;;;;;;5065755;28;20234;-84
2023/05/29 07:59:28;;;;;;;9.95;9.65;;;21.00;99.90;;;;;;5067247;28;20231;-85
2023/05/29 08:02:04;;;;;;;10.25;9.95;;;21.10;99.90;;;;;;5065509;28;20760;-84
2023/05/29 08:04:32;;;;;;;10.40;10.10;;;21.10;99.90;;;;;;5065535;28;20227;-84
2023/05/29 08:07:05;;;;;;;10.27;9.98;;;21.20;99.90;;;;;;5064806;28;20242;-84
2023/05/29 08:09:33;;;;;;;10.20;9.90;;;21.40;99.90;;;;;;5066438;28;20289;-85
2023/05/29 08:12:03;;;;;;;10.00;9.70;;;21.50;99.90;;;;;;5066416;28;20265;-84
2023/05/29 08:14:32;;;;;;;10.00;9.70;;;21.70;99.90;;;;;;5066068;28;20326;-84
2023/05/29 08:17:07;;;;;;;10.10;9.80;;;21.80;99.90;;;;;;5065906;28;20223;-84
2023/05/29 08:19:40;;;;;;;10.20;9.90;;;21.90;99.90;;;;;;5065176;28;20260;-84
2023/05/29 08:22:15;;;;;;;10.02;9.73;;;22.10;99.90;;;;;;5070753;28;20215;-84
2023/05/29 08:24:44;;;;;;;9.90;9.60;;;22.10;99.90;;;;;;5066692;28;20230;-84
2023/05/29 08:27:11;;;;;;;10.07;9.77;;;22.10;99.90;;;;;;5070757;28;20222;-84
2023/05/29 08:29:39;;;;;;;10.13;9.82;;;22.30;99.90;;;;;;5070328;28;20218;-84
2023/05/29 08:32:19;;;;;;;10.18;9.88;;;22.40;99.90;;;;;;5070821;28;20214;-84
2023/05/29 08:34:48;;;;;;;10.25;9.95;;;22.50;99.90;;;;;;5068962;28;20239;-84
2023/05/29 08:37:19;;;;;;;9.82;9.52;;;22.50;99.90;;;;;;5066866;28;20231;-84
2023/05/29 08:39:47;;;;;;;9.88;9.57;;;22.60;99.90;;;;;;5065647;28;20283;-85
2023/05/29 08:42:23;;;;;;;9.77;9.48;;;22.70;99.90;;;;;;5065909;28;20309;-84
2023/05/29 08:44:55;;;;;;;9.88;9.57;;;22.90;99.90;;;;;;5069802;28;20225;-84
2023/05/29 08:47:32;;;;;;;9.88;9.57;;;23.00;99.90;;;;;;5069261;28;20246;-84
2023/05/29 08:50:10;;;;;;;9.70;9.40;;;23.10;99.90;;;;;;5067208;28;20242;-84
2023/05/29 08:52:39;;;;;;;9.95;9.65;;;23.40;99.90;;;;;;5066286;28;20233;-84
2023/05/29 08:55:08;;;;;;;9.60;9.30;;;23.60;99.90;;;;;;5066135;28;20254;-84
2023/05/29 08:57:38;;;;;;;10.02;9.73;;;23.70;99.90;;;;;;5066019;28;20235;-84
2023/05/29 09:00:12;;;;;;;9.90;9.60;;;23.80;99.90;;;;;;5065131;28;20223;-84
2023/05/29 09:02:45;;;;;;;10.10;9.80;;;23.90;99.90;;;;;;5065091;28;20227;-84
2023/05/29 09:05:14;;;;;;;9.95;9.65;;;24.00;99.90;;;;;;5066019;28;20237;-84
2023/05/29 09:07:43;;;;;;;10.10;9.80;;;24.10;99.90;;;;;;5066189;28;20251;-83
2023/05/29 09:10:13;;;;;;;9.90;9.60;;;24.20;99.90;;;;;;5065093;28;20223;-84
2023/05/29 09:12:42;;;;;;;9.70;9.40;;;24.30;99.90;;;;;;5066078;28;20234;-84
2023/05/29 09:15:20;;;;;;;9.77;9.48;;;24.60;99.90;;;;;;5066298;28;20241;-84
2023/05/29 09:17:53;;;;;;;9.70;9.40;;;24.80;99.90;;;;;;5066244;28;20241;-84
2023/05/29 09:20:28;;;;;;;10.02;9.73;;;24.80;99.90;;;;;;5065027;28;20231;-84
2023/05/29 09:22:59;;;;;;;10.00;9.70;;;24.90;99.90;;;;;;5069402;28;20222;-84
2023/05/29 09:25:28;;;;;;;10.20;9.90;;;25.00;99.90;;;;;;5064411;28;20231;-84
2023/05/29 09:28:05;;;;;;;9.93;9.63;;;25.20;99.90;;;;;;5064029;28;20258;-84
2023/05/29 09:30:43;;;;;;;10.10;9.80;;;25.20;99.90;;;;;;5064084;28;20246;-84
2023/05/29 09:33:16;;;;;;;9.70;9.40;;;25.00;99.90;;;;;;5063281;28;20234;-84
2023/05/29 09:35:45;;;;;;;9.70;9.40;;;24.90;99.90;;;;;;5064493;28;20298;-84
2023/05/29 09:38:22;;;;;;;9.70;9.40;;;25.00;99.90;;;;;;5064598;28;20235;-84
2023/05/29 09:40:50;;;;;;;9.52;9.23;;;25.10;99.90;;;;;;5063877;28;20274;-84
2023/05/29 09:43:19;;;;;;;9.70;9.40;;;25.50;99.90;;;;;;5064256;28;20215;-84
2023/05/29 09:45:49;;;;;;;9.85;9.55;;;25.60;99.90;;;;;;5063482;28;20236;-84
2023/05/29 09:48:28;;;;;;;9.95;9.65;;;25.80;99.90;;;;;;5064150;28;20250;-84
2023/05/29 09:50:57;;;;;;;10.05;9.75;;;26.10;99.90;;;;;;5063158;28;20238;-84
2023/05/29 09:53:28;;;;;;;10.00;9.70;;;26.00;99.90;;;;;;5063486;28;20227;-84
2023/05/29 09:55:59;;;;;;;10.00;9.70;;;26.10;99.90;;;;;;5063959;28;20233;-84
2023/05/29 09:58:27;;;;;;;9.90;9.60;;;26.30;99.90;;;;;;5063818;28;20245;-84
2023/05/29 10:00:56;;;;;;;9.95;9.65;;;26.50;99.90;;;;;;5063514;28;20239;-84
2023/05/29 10:03:29;;;;;;;10.23;9.93;;;26.50;99.90;;;;;;5063915;28;20535;-84
2023/05/29 10:06:03;;;;;;;10.00;9.70;;;26.80;99.90;;;;;;5063919;28;20219;-84
2023/05/29 10:08:41;;;;;;;10.07;9.77;;;26.90;99.90;;;;;;5064147;28;20222;-84
2023/05/29 10:11:15;;;;;;;10.10;9.80;;;27.00;99.90;;;;;;5064177;28;20223;-84
2023/05/29 10:13:50;;;;;;;10.02;9.73;;;27.10;99.90;;;;;;5065410;28;20251;-84
2023/05/29 10:16:22;;;;;;;10.07;9.77;;;26.90;99.90;;;;;;5070757;28;20242;-84
2023/05/29 10:18:59;;;;;;;9.98;9.68;;;27.00;99.90;;;;;;5067930;28;20278;-83
2023/05/29 10:21:31;;;;;;;9.63;9.32;;;27.20;99.90;;;;;;5065176;28;20349;-82
2023/05/29 10:24:18;;;;;;;9.60;9.30;;;27.20;99.90;;;;;;5064421;28;20234;-82
2023/05/29 10:26:55;;;;;;;10.10;9.80;;;27.10;99.90;;;;;;5072743;28;20254;-82
2023/05/29 10:30:05;;;;;;;9.90;9.60;;;27.20;99.90;;;;;;5064465;28;20218;-82
2023/05/29 10:33:00;;;;;;;9.82;9.52;;;27.20;99.90;;;;;;5066684;28;20223;-83
2023/05/29 10:35:48;;;;;;;10.00;9.70;;;27.40;99.90;;;;;;5067358;28;20230;-83
2023/05/29 10:38:18;;;;;;;10.05;9.75;;;27.40;99.90;;;;;;5067306;28;20277;-84
2023/05/29 10:40:48;;;;;;;10.00;9.70;;;27.50;99.90;;;;;;5066734;28;20239;-84
2023/05/29 10:43:35;;;;;;;10.10;9.80;;;27.70;99.90;;;;;;5068312;28;20223;-84
2023/05/29 10:46:03;;;;;;;10.20;9.90;;;27.50;99.90;;;;;;5068582;28;20239;-83
2023/05/29 10:48:51;;;;;;;10.18;9.88;;;27.70;99.90;;;;;;5067309;28;20322;-84
2023/05/29 10:51:33;;;;;;;10.40;10.10;;;28.00;99.90;;;;;;5067249;28;20246;-83
2023/05/29 10:54:01;;;;;;;10.40;10.10;;;28.30;99.90;;;;;;5066331;28;20273;-83
2023/05/29 10:56:32;;;;;;;10.15;9.85;;;28.60;99.90;;;;;;5068150;28;20285;-84
2023/05/29 10:59:06;;;;;;;10.30;10.00;;;28.80;99.90;;;;;;5065831;28;20230;-82
2023/05/29 11:01:37;;;;;;;10.02;9.73;;;28.80;99.90;;;;;;5093641;22;20247;-87
2023/05/29 11:04:32;;;;;;;10.40;10.10;;;28.90;99.90;;;;;;5065688;28;20223;-88
2023/05/29 11:09:49;;;;;;;10.02;9.73;;;29.10;99.90;;;;;;5063866;28;20318;-88
2023/05/29 11:12:36;;;;;;;10.18;9.88;;;29.00;99.90;;;;;;5065395;28;20239;-85
2023/05/29 11:15:09;;;;;;;10.25;9.95;;;28.90;99.60;;;;;;5065862;28;20230;-88
2023/05/29 11:17:53;;;;;;;10.30;10.00;;;28.90;99.20;;;;;;5073704;28;20234;-87
2023/05/29 11:20:39;;;;;;;10.30;10.00;;;28.80;98.30;;;;;;5081360;28;20274;-87
2023/05/29 11:23:20;;;;;;;10.38;10.07;;;28.80;97.70;;;;;;5075280;28;20254;-88
2023/05/29 11:25:48;;;;;;;10.32;10.02;;;29.10;99.50;;;;;;5068192;28;20253;-87
2023/05/29 11:28:16;;;;;;;10.45;10.15;;;29.20;98.80;;;;;;5065735;28;21082;-88
2023/05/29 11:30:46;;;;;;;10.20;9.90;;;29.40;99.90;;;;;;5068437;28;20233;-87
2023/05/29 11:33:32;;;;;;;10.18;9.88;;;29.70;98.30;;;;;;5077483;28;20226;-88
2023/05/29 11:36:01;;;;;;;10.05;9.75;;;29.90;98.00;;;;;;5065239;28;20234;-86
2023/05/29 11:38:33;;;;;;;10.20;9.90;;;29.80;97.20;;;;;;5065333;28;20325;-84
2023/05/29 11:41:03;;;;;;;10.20;9.90;;;30.00;99.50;;;;;;5064465;28;20231;-85
2023/05/29 11:43:32;;;;;;;10.27;9.98;;;30.10;98.40;;;;;;5064597;28;20234;-87
2023/05/29 11:45:59;;;;;;;10.45;10.15;;;30.30;98.00;;;;;;5065323;28;20239;-87
2023/05/29 11:48:28;;;;;;;10.23;9.93;;;30.20;96.50;;;;;;5063952;28;20230;-86
2023/05/29 11:50:58;;;;;;;10.45;10.15;;;30.00;96.80;;;;;;5064560;28;20226;-86
2023/05/29 11:53:30;;;;;;;10.50;10.20;;;29.60;97.70;;;;;;5064226;28;20441;-86
2023/05/29 11:56:15;;;;;;;10.15;9.85;;;29.60;99.70;;;;;;5063525;28;20283;-86
2023/05/29 11:58:48;;;;;;;10.35;10.05;;;29.70;97.50;;;;;;5063970;28;20230;-87
2023/05/29 12:01:23;;;;;;;10.60;10.30;;;30.00;98.40;;;;;;5064421;28;20238;-86
2023/05/29 12:03:51;;;;;;;10.20;9.90;;;30.20;96.00;;;;;;5065095;28;20237;-86
2023/05/29 12:06:42;;;;;;;10.02;9.73;;;30.40;96.20;;;;;;5070546;28;20226;-86
2023/05/29 12:09:16;;;;;;;10.30;10.00;;;30.70;98.30;;;;;;5065250;28;20277;-87
2023/05/29 12:11:48;;;;;;;10.18;9.88;;;30.90;96.60;;;;;;5063612;28;20245;-87
2023/05/29 12:14:17;;;;;;;10.25;9.95;;;30.80;96.80;;;;;;5067721;28;20227;-86
2023/05/29 12:16:48;;;;;;;10.25;9.95;;;30.70;95.20;;;;;;5078564;28;20265;-86
2023/05/29 12:19:16;;;;;;;10.40;10.10;;;30.60;94.50;;;;;;5065044;28;20237;-87
2023/05/29 12:21:45;;;;;;;10.43;10.13;;;30.80;93.60;;;;;;5063757;28;20261;-86
2023/05/29 12:24:28;;;;;;;10.40;10.10;;;31.20;94.40;;;;;;5063545;28;20241;-86
2023/05/29 12:26:56;;;;;;;10.20;9.90;;;30.80;92.50;;;;;;5063224;28;20231;-86
2023/05/29 12:29:32;;;;;;;10.20;9.90;;;30.70;92.10;;;;;;5062812;28;20223;-87
2023/05/29 12:32:02;;;;;;;10.40;10.10;;;30.60;93.00;;;;;;5063424;28;20253;-87
2023/05/29 12:34:41;;;;;;;10.32;10.02;;;30.60;92.70;;;;;;5063238;28;20250;-87
2023/05/29 12:37:13;;;;;;;9.80;9.50;;;30.50;92.70;;;;;;5062724;28;20235;-87
2023/05/29 12:39:48;;;;;;;10.05;9.75;;;30.50;92.70;;;;;;5063532;28;20225;-87
2023/05/29 12:42:18;;;;;;;10.20;9.90;;;30.80;93.40;;;;;;5063195;28;20235;-87
2023/05/29 12:44:46;;;;;;;10.18;9.88;;;31.10;92.50;;;;;;5063109;28;20231;-86
2023/05/29 12:47:16;;;;;;;10.40;10.10;;;31.60;94.20;;;;;;5063170;28;20230;-86
2023/05/29 12:49:45;;;;;;;10.70;10.40;;;31.90;92.70;;;;;;5062679;28;20227;-87
2023/05/29 12:52:16;;;;;;;10.20;9.90;;;31.90;91.90;;;;;;5063264;28;20223;-87
2023/05/29 12:54:53;;;;;;;10.50;10.20;;;31.90;93.10;;;;;;5062413;28;20238;-86
2023/05/29 12:57:22;;;;;;;10.48;10.18;;;31.80;93.30;;;;;;5063355;28;20253;-86
2023/05/29 12:59:52;;;;;;;10.60;10.30;;;31.80;92.50;;;;;;5062780;28;20315;-88
2023/05/29 13:02:23;;;;;;;10.57;10.27;;;32.00;95.60;;;;;;5063632;28;20268;-86
2023/05/29 13:04:53;;;;;;;10.30;10.00;;;32.40;95.00;;;;;;5063692;28;20231;-86
2023/05/29 13:07:21;;;;;;;10.30;10.00;;;32.30;92.30;;;;;;5063435;28;20225;-87
2023/05/29 13:09:55;;;;;;;10.48;10.18;;;32.20;89.90;;;;;;5063185;28;20234;-87
2023/05/29 13:12:28;;;;;;;10.40;10.10;;;32.10;90.00;;;;;;5063576;28;20226;-87
2023/05/29 13:14:57;;;;;;;10.57;10.27;;;32.10;91.90;;;;;;5063316;28;20245;-86
2023/05/29 13:17:29;;;;;;;10.40;10.10;;;32.00;92.10;;;;;;5066580;28;20253;-87
2023/05/29 13:19:57;;;;;;;10.65;10.35;;;32.30;91.40;;;;;;5064223;28;20225;-86
2023/05/29 13:22:30;;;;;;;10.52;10.23;;;32.60;88.60;;;;;;5066169;28;20296;-86
2023/05/29 13:25:06;;;;;;;10.63;10.32;;;32.50;90.40;;;;;;5063797;28;20297;-87
2023/05/29 13:27:35;;;;;;;10.60;10.30;;;32.50;89.00;;;;;;5066526;28;20249;-87
2023/05/29 13:30:04;;;;;;;10.60;10.30;;;32.70;90.50;;;;;;5064873;28;20266;-87
2023/05/29 13:32:31;;;;;;;10.60;10.30;;;32.80;87.90;;;;;;5063091;28;20265;-86
2023/05/29 13:35:01;;;;;;;10.70;10.40;;;32.80;85.80;;;;;;5062697;28;20234;-87
2023/05/29 13:37:31;;;;;;;10.55;10.25;;;32.70;89.60;;;;;;5061868;28;20227;-88
2023/05/29 13:43:14;;;;;;;10.50;10.20;;;33.40;87.40;;;;;;5061307;28;20230;-86
2023/05/29 13:45:43;;;;;;;10.30;10.00;;;33.50;86.30;;;;;;5062519;28;20242;-86
2023/05/29 13:48:13;;;;;;;10.35;10.05;;;33.60;88.40;;;;;;5062722;28;20234;-87
2023/05/29 13:50:42;;;;;;;10.40;10.10;;;33.50;86.30;;;;;;5062758;28;20249;-87
2023/05/29 13:53:11;;;;;;;10.30;10.00;;;33.40;88.20;;;;;;5063014;28;20292;-87
2023/05/29 13:58:28;;;;;;;10.40;10.10;;;33.30;85.60;;;;;;5062008;28;20235;-86
2023/05/29 14:00:57;;;;;;;10.45;10.15;;;33.00;84.80;;;;;;5062027;28;20226;-86
2023/05/29 14:03:28;;;;;;;10.50;10.20;;;33.00;86.30;;;;;;5065041;28;20242;-87
2023/05/29 14:05:56;;;;;;;10.50;10.20;;;33.10;84.50;;;;;;5073799;28;20325;-87
2023/05/29 14:08:27;;;;;;;10.63;10.32;;;33.00;84.00;;;;;;5079047;28;20223;-86
2023/05/29 14:10:57;;;;;;;10.77;10.48;;;33.20;84.40;;;;;;5080588;28;20206;-86
2023/05/29 14:16:15;;;;;;;10.50;10.20;;;33.10;83.90;;;;;;5074519;28;20219;-86
2023/05/29 14:18:43;;;;;;;10.88;10.57;;;33.40;87.20;;;;;;5071466;28;20321;-86
2023/05/29 14:21:12;;;;;;;10.85;10.55;;;33.50;84.40;;;;;;5067538;28;20230;-87
2023/05/29 14:23:42;;;;;;;11.00;10.70;;;33.70;86.60;;;;;;5075931;28;20231;-86
2023/05/29 14:26:14;;;;;;;10.82;10.52;;;33.50;85.90;;;;;;5075769;28;20218;-87
2023/05/29 14:28:42;;;;;;;11.10;10.80;;;33.70;88.40;;;;;;5072689;28;20241;-87
2023/05/29 14:31:09;;;;;;;11.18;10.88;;;33.80;84.50;;;;;;5070861;28;20236;-87
2023/05/29 14:33:39;;;;;;;11.23;10.93;;;33.90;83.80;;;;;;5073058;28;20234;-87
2023/05/29 14:36:09;;;;;;;11.18;10.88;;;34.00;86.70;;;;;;5073421;28;20286;-87
2023/05/29 14:38:38;;;;;;;11.30;11.00;;;33.90;83.90;;;;;;5067277;28;20329;-87
2023/05/29 14:41:07;;;;;;;10.90;10.60;;;33.40;85.50;;;;;;5067112;28;20251;-87
2023/05/29 14:43:45;;;;;;;11.10;10.80;;;32.90;85.40;;;;;;5070445;28;20277;-86
2023/05/29 14:46:16;;;;;;;11.07;10.77;;;33.10;88.10;;;;;;5082163;28;20236;-86
2023/05/29 14:48:48;;;;;;;11.10;10.80;;;33.20;86.00;;;;;;5069617;28;20219;-87
2023/05/29 14:51:24;;;;;;;10.95;10.65;;;33.30;86.70;;;;;;5064894;28;20233;-87
2023/05/29 14:53:52;;;;;;;11.02;10.73;;;33.30;86.70;;;;;;5065260;28;20227;-87
2023/05/29 14:56:23;;;;;;;10.85;10.55;;;33.10;80.80;;;;;;5064103;28;20241;-87
2023/05/29 14:58:55;;;;;;;10.98;10.68;;;33.20;83.60;;;;;;5064377;28;20231;-88
2023/05/29 15:01:23;;;;;;;11.00;10.70;;;33.20;80.00;;;;;;5064381;28;20321;-88
2023/05/29 15:03:51;;;;;;;11.10;10.80;;;33.20;81.90;;;;;;5064401;28;20269;-87
2023/05/29 15:06:31;;;;;;;10.90;10.60;;;33.10;81.60;;;;;;5064445;28;20239;-87
2023/05/29 15:09:00;;;;;;;10.93;10.63;;;33.20;84.30;;;;;;5065124;28;20321;-87
2023/05/29 15:11:30;;;;;;;11.00;10.70;;;33.20;84.40;;;;;;5074340;28;20253;-86
2023/05/29 15:14:00;;;;;;;10.90;10.60;;;33.30;87.00;;;;;;5078883;28;20207;-86
2023/05/29 15:16:39;;;;;;;10.90;10.60;;;33.40;86.40;;;;;;5081200;28;20253;-86
2023/05/29 15:19:07;;;;;;;11.07;10.77;;;33.30;87.10;;;;;;5080883;28;20219;-87
2023/05/29 15:21:35;;;;;;;10.82;10.52;;;33.40;85.90;;;;;;5078634;28;20258;-87